Time;durP1;ratioP1;P1;durP2;ratioP2;P2;SDS_P1;SDS_P2;PMS_P1;PMS_P2;Temp;Humidity;BMP_temperature;BMP_pressure;BME280_temperature;BME280_humidity;BME280_pressure;Samples;Min_cycle;Max_cycle;Signal;HPM_P1;HPM_P2
2024/03/09 00:01:10;;;;;;;;;;;;;;;3.23;73.41;94815.19;4202074;28;19935;-69
2024/03/09 00:03:12;;;;;;;;;;;;;;;3.43;72.68;94818.91;4206612;28;19926;-71
2024/03/09 00:05:14;;;;;;;;;;;;;;;3.67;72.31;94818.84;4196802;28;20275;-69
2024/03/09 00:07:16;;;;;;;;;;;;;;;3.92;71.96;94819.63;4204184;28;20117;-69
2024/03/09 00:09:17;;;;;;;;;;;;;;;4.15;70.38;94812.69;4210147;28;19924;-69
2024/03/09 00:11:20;;;;;;;;;;;;;;;4.31;69.51;94807.97;4201950;28;20413;-70
2024/03/09 00:13:22;;;;;;;;;;;;;;;4.47;69.69;94808.44;4189540;28;20389;-69
2024/03/09 00:15:24;;;;;;;;;;;;;;;4.60;68.43;94805.69;4214526;28;19927;-69
2024/03/09 00:17:26;;;;;;;;;;;;;;;4.74;68.01;94811.59;4200346;28;19924;-70
2024/03/09 00:19:29;;;;;;;;;;;;;;;4.77;67.65;94816.53;4209636;28;19931;-71
2024/03/09 00:21:31;;;;;;;;;;;;;;;4.85;67.63;94816.75;4210625;28;19963;-71
2024/03/09 00:23:33;;;;;;;;;;;;;;;4.89;67.62;94815.56;4198484;28;20264;-69
2024/03/09 00:25:35;;;;;;;;;;;;;;;4.93;67.10;94812.59;4212835;28;19923;-69
2024/03/09 00:27:40;;;;;;;;;;;;;;;5.00;66.79;94812.13;4212254;28;20335;-68
2024/03/09 00:29:42;;;;;;;;;;;;;;;5.05;66.70;94810.78;4203773;28;19920;-71
2024/03/09 00:31:44;;;;;;;;;;;;;;;5.11;66.16;94809.50;4204355;28;19927;-71
2024/03/09 00:33:48;;;;;;;;;;;;;;;5.17;66.48;94808.19;4207822;28;19924;-70
2024/03/09 00:35:50;;;;;;;;;;;;;;;5.19;66.05;94809.69;4200283;28;19927;-70
2024/03/09 00:37:52;;;;;;;;;;;;;;;5.22;65.95;94800.84;4211171;28;20410;-68
2024/03/09 00:39:54;;;;;;;;;;;;;;;5.19;65.94;94808.88;4207780;28;20504;-68
2024/03/09 00:41:55;;;;;;;;;;;;;;;5.20;66.48;94800.94;4199358;28;20385;-68
2024/03/09 00:43:57;;;;;;;;;;;;;;;5.23;66.77;94792.09;4197082;28;19924;-70
2024/03/09 00:45:59;;;;;;;;;;;;;;;5.25;66.15;94798.00;4210905;28;19927;-67
2024/03/09 00:48:03;;;;;;;;;;;;;;;5.30;65.99;94801.03;4209470;28;20337;-68
2024/03/09 00:50:07;;;;;;;;;;;;;;;5.32;65.87;94797.38;4206067;28;19920;-70
2024/03/09 00:52:12;;;;;;;;;;;;;;;5.36;65.07;94794.53;4196669;28;19956;-71
2024/03/09 00:54:14;;;;;;;;;;;;;;;5.38;65.49;94796.06;4202802;28;20404;-70
2024/03/09 00:56:15;;;;;;;;;;;;;;;5.41;65.76;94797.56;4210433;28;20018;-70
2024/03/09 00:58:21;;;;;;;;;;;;;;;5.31;65.22;94798.34;4196833;28;19924;-71
2024/03/09 01:00:23;;;;;;;;;;;;;;;5.23;65.32;94799.91;4206328;28;19920;-69
2024/03/09 01:02:26;;;;;;;;;;;;;;;5.13;66.09;94802.41;4205052;28;19924;-69
2024/03/09 01:04:28;;;;;;;;;;;;;;;5.05;66.50;94797.81;4215819;28;20311;-70
2024/03/09 01:06:29;;;;;;;;;;;;;;;4.95;67.13;94799.50;4202658;28;19946;-69
2024/03/09 01:08:31;;;;;;;;;;;;;;;4.99;66.60;94800.06;4205889;28;19924;-69
2024/03/09 01:10:33;;;;;;;;;;;;;;;5.00;66.15;94797.38;4208762;28;19928;-68
2024/03/09 01:12:35;;;;;;;;;;;;;;;5.01;66.56;94793.84;4188765;28;19958;-70
2024/03/09 01:14:37;;;;;;;;;;;;;;;5.05;66.64;94778.81;4200052;28;19920;-68
2024/03/09 01:16:39;;;;;;;;;;;;;;;5.12;66.27;94785.19;4190084;28;19924;-68
2024/03/09 01:18:42;;;;;;;;;;;;;;;5.15;66.63;94777.13;4201961;28;19920;-68
2024/03/09 01:20:44;;;;;;;;;;;;;;;5.14;66.49;94778.06;4212147;28;20346;-68
2024/03/09 01:22:47;;;;;;;;;;;;;;;5.17;66.33;94777.84;4200586;28;19954;-72
2024/03/09 01:24:52;;;;;;;;;;;;;;;5.19;66.13;94775.94;4203087;28;19920;-69
2024/03/09 01:26:56;;;;;;;;;;;;;;;5.23;66.24;94782.53;4204330;28;19920;-69
2024/03/09 01:28:58;;;;;;;;;;;;;;;5.26;65.85;94771.06;4205458;28;19923;-69
2024/03/09 01:31:00;;;;;;;;;;;;;;;5.29;65.84;94773.41;4206036;28;20458;-71
2024/03/09 01:33:02;;;;;;;;;;;;;;;5.30;65.35;94778.47;4203320;28;20005;-70
2024/03/09 01:35:05;;;;;;;;;;;;;;;5.31;65.52;94771.50;4221982;28;19919;-72
2024/03/09 01:37:14;;;;;;;;;;;;;;;5.26;65.60;94768.47;4196306;28;19928;-69
2024/03/09 01:39:17;;;;;;;;;;;;;;;5.17;66.31;94767.44;4218985;28;21025;-69
2024/03/09 01:41:19;;;;;;;;;;;;;;;5.08;66.66;94768.19;4204753;28;19928;-70
2024/03/09 01:43:21;;;;;;;;;;;;;;;5.14;66.34;94770.28;4194197;28;19946;-69
2024/03/09 01:45:23;;;;;;;;;;;;;;;5.19;66.42;94769.94;4198851;28;20015;-69
2024/03/09 01:47:25;;;;;;;;;;;;;;;5.13;65.88;94769.47;4189639;28;19927;-70
2024/03/09 01:49:28;;;;;;;;;;;;;;;5.11;66.19;94771.34;4200033;28;19981;-68
2024/03/09 01:51:30;;;;;;;;;;;;;;;5.00;66.83;94779.19;4174970;28;20323;-68
2024/03/09 01:53:32;;;;;;;;;;;;;;;4.88;67.09;94780.16;4187942;28;20022;-71
2024/03/09 01:55:34;;;;;;;;;;;;;;;4.81;67.20;94771.22;4206563;28;19949;-72
2024/03/09 01:57:36;;;;;;;;;;;;;;;4.81;67.75;94776.41;4208437;28;20011;-70
2024/03/09 01:59:38;;;;;;;;;;;;;;;4.77;67.32;94772.41;4186360;28;20027;-69
2024/03/09 02:01:40;;;;;;;;;;;;;;;4.68;67.54;94768.78;4207324;28;19927;-69
2024/03/09 02:03:42;;;;;;;;;;;;;;;4.64;68.36;94772.56;4203417;28;19967;-69
2024/03/09 02:05:45;;;;;;;;;;;;;;;4.58;68.25;94766.09;4189975;28;20015;-70
2024/03/09 02:07:48;;;;;;;;;;;;;;;4.70;68.41;94770.31;4183490;28;19951;-68
2024/03/09 02:09:50;;;;;;;;;;;;;;;4.78;68.15;94767.09;4192198;28;19931;-70
2024/03/09 02:11:52;;;;;;;;;;;;;;;4.86;68.21;94777.72;4186983;28;19995;-70
2024/03/09 02:13:54;;;;;;;;;;;;;;;4.97;67.76;94773.41;4178354;28;20061;-69
2024/03/09 02:15:55;;;;;;;;;;;;;;;5.06;67.54;94767.50;4178285;28;19932;-70
2024/03/09 02:17:57;;;;;;;;;;;;;;;5.12;66.67;94765.22;4192674;28;19920;-69
2024/03/09 02:19:59;;;;;;;;;;;;;;;5.21;66.70;94768.84;4206932;28;19951;-70
2024/03/09 02:22:01;;;;;;;;;;;;;;;5.28;66.80;94769.16;4206818;28;20239;-70
2024/03/09 02:24:07;;;;;;;;;;;;;;;5.18;66.44;94769.09;4204673;28;20547;-70
2024/03/09 02:26:09;;;;;;;;;;;;;;;5.17;67.02;94761.44;4195225;28;19967;-71
2024/03/09 02:28:12;;;;;;;;;;;;;;;5.22;66.54;94767.06;4176164;28;19943;-71
2024/03/09 02:30:13;;;;;;;;;;;;;;;5.32;66.88;94762.78;4202136;28;19988;-70
2024/03/09 02:32:15;;;;;;;;;;;;;;;5.34;66.00;94763.47;4198504;28;19920;-70
2024/03/09 02:34:17;;;;;;;;;;;;;;;5.38;66.33;94764.03;4199245;28;20200;-70
2024/03/09 02:36:25;;;;;;;;;;;;;;;5.16;67.32;94762.38;4202773;28;19990;-70
2024/03/09 02:38:27;;;;;;;;;;;;;;;5.17;67.06;94766.63;4201454;28;20594;-71
2024/03/09 02:40:28;;;;;;;;;;;;;;;4.93;67.62;94760.69;4199705;28;19932;-69
2024/03/09 02:42:32;;;;;;;;;;;;;;;4.76;67.96;94768.19;4206048;28;19924;-70
2024/03/09 02:44:34;;;;;;;;;;;;;;;4.77;68.21;94768.03;4200393;28;19928;-69
2024/03/09 02:46:36;;;;;;;;;;;;;;;4.87;68.85;94761.19;4206794;28;19930;-71
2024/03/09 02:48:38;;;;;;;;;;;;;;;5.03;67.53;94765.13;4208875;28;19926;-69
2024/03/09 02:50:40;;;;;;;;;;;;;;;5.14;67.63;94762.47;4191322;28;19939;-69
2024/03/09 02:52:42;;;;;;;;;;;;;;;5.23;67.21;94761.75;4197433;28;19921;-71
2024/03/09 02:54:43;;;;;;;;;;;;;;;5.30;66.71;94756.88;4200976;28;19920;-70
2024/03/09 02:56:46;;;;;;;;;;;;;;;5.36;66.38;94771.97;4202211;28;19927;-70
2024/03/09 02:58:48;;;;;;;;;;;;;;;5.36;66.34;94776.34;4203932;28;19920;-69
2024/03/09 03:00:50;;;;;;;;;;;;;;;5.36;66.42;94771.16;4193954;28;20214;-69
2024/03/09 03:05:13;;;;;;;;;;;;;;;5.45;66.72;94762.59;4203217;28;20019;-71
2024/03/09 03:07:15;;;;;;;;;;;;;;;5.50;66.52;94755.25;4206805;28;19924;-70
2024/03/09 03:09:19;;;;;;;;;;;;;;;5.53;66.29;94760.19;4198422;28;20023;-70
2024/03/09 03:11:21;;;;;;;;;;;;;;;5.51;65.85;94764.69;4205495;28;20330;-69
2024/03/09 03:13:23;;;;;;;;;;;;;;;5.54;66.15;94759.22;4207086;28;20011;-70
2024/03/09 03:15:25;;;;;;;;;;;;;;;5.56;66.06;94759.94;4209207;28;19943;-71
2024/03/09 03:17:27;;;;;;;;;;;;;;;5.54;66.16;94751.44;4200518;28;19926;-69
2024/03/09 03:19:29;;;;;;;;;;;;;;;5.52;66.19;94751.56;4205911;28;19928;-68
2024/03/09 03:21:30;;;;;;;;;;;;;;;5.56;65.93;94746.94;4203836;28;19970;-69
2024/03/09 03:23:32;;;;;;;;;;;;;;;5.56;65.92;94744.34;4196426;28;20060;-71
2024/03/09 03:25:34;;;;;;;;;;;;;;;5.54;66.21;94743.66;4200352;28;20319;-69
2024/03/09 03:27:36;;;;;;;;;;;;;;;5.61;65.92;94746.56;4201302;28;20126;-70
2024/03/09 03:29:39;;;;;;;;;;;;;;;5.67;65.96;94756.44;4201810;28;20122;-70
2024/03/09 03:31:41;;;;;;;;;;;;;;;5.65;65.50;94761.75;4204882;28;19923;-69
2024/03/09 03:33:43;;;;;;;;;;;;;;;5.62;65.63;94759.44;4213298;28;20086;-70
2024/03/09 03:35:46;;;;;;;;;;;;;;;5.66;65.98;94768.63;4212754;28;19920;-70
2024/03/09 03:37:48;;;;;;;;;;;;;;;5.62;65.69;94779.41;4202751;28;20007;-70
2024/03/09 03:39:49;;;;;;;;;;;;;;;5.63;65.89;94768.84;4205522;28;19924;-70
2024/03/09 03:41:52;;;;;;;;;;;;;;;5.63;65.47;94773.25;4206807;28;19924;-69
2024/03/09 03:43:54;;;;;;;;;;;;;;;5.63;65.77;94774.06;4209375;28;19920;-70
2024/03/09 03:45:57;;;;;;;;;;;;;;;5.39;66.56;94782.09;4219711;28;20287;-70
2024/03/09 03:47:59;;;;;;;;;;;;;;;5.34;66.50;94768.69;4205609;28;20358;-70
2024/03/09 03:50:03;;;;;;;;;;;;;;;5.30;67.03;94765.50;4193237;28;19932;-70
2024/03/09 03:52:04;;;;;;;;;;;;;;;5.28;66.99;94761.38;4202080;28;19920;-70
2024/03/09 03:54:06;;;;;;;;;;;;;;;5.06;67.11;94765.72;4207264;28;19930;-70
2024/03/09 03:56:08;;;;;;;;;;;;;;;5.07;68.08;94761.34;4202359;28;20010;-70
2024/03/09 03:58:10;;;;;;;;;;;;;;;5.15;67.80;94764.16;4181163;28;19978;-70
2024/03/09 04:00:16;;;;;;;;;;;;;;;5.24;67.39;94765.16;4212085;28;19930;-68
2024/03/09 04:02:19;;;;;;;;;;;;;;;5.30;67.22;94754.28;4198985;28;19924;-70
2024/03/09 04:04:21;;;;;;;;;;;;;;;5.38;67.13;94751.03;4206930;28;19920;-70
2024/03/09 04:06:23;;;;;;;;;;;;;;;5.34;66.99;94756.50;4199869;28;19931;-71
2024/03/09 04:08:25;;;;;;;;;;;;;;;5.37;66.61;94757.19;4203518;28;19996;-71
2024/03/09 04:10:27;;;;;;;;;;;;;;;5.33;66.71;94754.88;4206366;28;20328;-71
2024/03/09 04:12:29;;;;;;;;;;;;;;;5.38;67.08;94748.44;4209123;28;19924;-71
2024/03/09 04:14:31;;;;;;;;;;;;;;;5.41;66.78;94761.19;4209099;28;20363;-70
2024/03/09 04:16:36;;;;;;;;;;;;;;;5.35;66.52;94752.13;4203922;28;19920;-70
2024/03/09 04:18:37;;;;;;;;;;;;;;;5.40;66.59;94749.16;4191591;28;19950;-69
2024/03/09 04:20:40;;;;;;;;;;;;;;;5.41;66.58;94748.22;4210718;28;19926;-72
2024/03/09 04:22:45;;;;;;;;;;;;;;;5.33;66.60;94757.47;4205503;28;19923;-71
2024/03/09 04:24:47;;;;;;;;;;;;;;;5.18;66.78;94750.91;4206536;28;19974;-70
2024/03/09 04:26:50;;;;;;;;;;;;;;;5.16;67.28;94747.59;4211305;28;19954;-70
2024/03/09 04:28:52;;;;;;;;;;;;;;;5.22;67.41;94752.31;4209768;28;19928;-70
2024/03/09 04:30:54;;;;;;;;;;;;;;;5.26;67.81;94755.47;4192299;28;19924;-73
2024/03/09 04:32:57;;;;;;;;;;;;;;;5.30;67.84;94751.69;4218479;28;20370;-69
2024/03/09 04:34:58;;;;;;;;;;;;;;;5.34;67.10;94755.69;4210369;28;20011;-70
2024/03/09 04:37:00;;;;;;;;;;;;;;;5.43;67.74;94759.31;4207450;28;19994;-69
2024/03/09 04:39:02;;;;;;;;;;;;;;;5.49;67.25;94759.63;4201642;28;20069;-70
2024/03/09 04:41:03;;;;;;;;;;;;;;;5.49;67.17;94757.03;4208567;28;19920;-68
2024/03/09 04:43:05;;;;;;;;;;;;;;;5.47;67.30;94745.13;4195221;28;20397;-72
2024/03/09 04:45:07;;;;;;;;;;;;;;;5.49;67.40;94749.22;4207771;28;20354;-69
2024/03/09 04:47:09;;;;;;;;;;;;;;;5.47;67.75;94758.91;4214127;28;20038;-71
2024/03/09 04:49:11;;;;;;;;;;;;;;;5.43;67.38;94756.72;4195247;28;19958;-71
2024/03/09 04:51:12;;;;;;;;;;;;;;;5.38;67.37;94754.50;4209338;28;19978;-69
2024/03/09 04:53:14;;;;;;;;;;;;;;;5.42;68.06;94765.44;4210639;28;20082;-70
2024/03/09 04:55:16;;;;;;;;;;;;;;;5.48;67.78;94759.72;4211385;28;20080;-69
2024/03/09 04:57:24;;;;;;;;;;;;;;;5.56;67.25;94751.31;4210171;28;19927;-69
2024/03/09 04:59:26;;;;;;;;;;;;;;;5.60;67.44;94757.91;4203175;28;19970;-69
2024/03/09 05:01:28;;;;;;;;;;;;;;;5.67;67.09;94762.47;4208898;28;20006;-70
2024/03/09 05:03:29;;;;;;;;;;;;;;;5.71;66.71;94756.06;4210365;28;19977;-71
2024/03/09 05:05:31;;;;;;;;;;;;;;;5.77;66.77;94754.72;4206714;28;20027;-71
2024/03/09 05:07:33;;;;;;;;;;;;;;;5.82;66.76;94759.53;4209364;28;19923;-70
2024/03/09 05:09:37;;;;;;;;;;;;;;;5.84;67.29;94760.25;4201932;28;19920;-69
2024/03/09 05:11:38;;;;;;;;;;;;;;;5.89;66.83;94758.91;4206553;28;19965;-68
2024/03/09 05:13:40;;;;;;;;;;;;;;;5.90;66.54;94759.72;4208924;28;20092;-70
2024/03/09 05:15:42;;;;;;;;;;;;;;;5.92;66.63;94761.25;4206196;28;20011;-71
2024/03/09 05:17:44;;;;;;;;;;;;;;;5.91;66.30;94756.16;4213412;28;20122;-69
2024/03/09 05:19:46;;;;;;;;;;;;;;;5.98;66.45;94759.94;4210162;28;19923;-70
2024/03/09 05:21:51;;;;;;;;;;;;;;;6.03;66.49;94754.34;4198946;28;20007;-71
2024/03/09 05:23:52;;;;;;;;;;;;;;;5.93;66.01;94754.25;4204910;28;19935;-72
2024/03/09 05:25:54;;;;;;;;;;;;;;;5.74;66.44;94762.78;4197605;28;20421;-72
2024/03/09 05:27:57;;;;;;;;;;;;;;;5.78;67.53;94760.75;4202628;28;19992;-72
2024/03/09 05:29:59;;;;;;;;;;;;;;;5.82;67.08;94757.75;4211551;28;19920;-69
2024/03/09 05:32:03;;;;;;;;;;;;;;;5.86;67.37;94747.94;4206549;28;20014;-71
2024/03/09 05:34:09;;;;;;;;;;;;;;;5.93;66.57;94762.88;4209553;28;19934;-70
2024/03/09 05:36:10;;;;;;;;;;;;;;;6.03;66.21;94756.94;4197113;28;19920;-71
2024/03/09 05:38:13;;;;;;;;;;;;;;;6.02;66.00;94763.09;4206339;28;19920;-70
2024/03/09 05:40:15;;;;;;;;;;;;;;;6.00;66.37;94765.00;4197328;28;19928;-68
2024/03/09 05:42:17;;;;;;;;;;;;;;;6.06;66.62;94765.28;4201664;28;20007;-71
2024/03/09 05:44:19;;;;;;;;;;;;;;;6.14;66.33;94768.06;4194857;28;19920;-72
2024/03/09 05:46:21;;;;;;;;;;;;;;;6.05;66.22;94768.88;4209590;28;20977;-70
2024/03/09 05:48:23;;;;;;;;;;;;;;;5.99;66.22;94764.19;4209427;28;19926;-71
2024/03/09 05:50:28;;;;;;;;;;;;;;;5.91;66.63;94762.19;4206259;28;20339;-69
2024/03/09 05:52:31;;;;;;;;;;;;;;;5.98;66.93;94769.50;4206501;28;19920;-70
2024/03/09 05:54:35;;;;;;;;;;;;;;;6.06;67.08;94761.88;4204762;28;19924;-70
2024/03/09 05:56:37;;;;;;;;;;;;;;;6.14;66.31;94768.06;4209897;28;19958;-71
2024/03/09 05:58:38;;;;;;;;;;;;;;;6.14;66.43;94768.06;4209282;28;19920;-72
2024/03/09 06:00:42;;;;;;;;;;;;;;;6.18;66.14;94771.25;4206577;28;19927;-71
2024/03/09 06:02:44;;;;;;;;;;;;;;;6.19;66.51;94772.06;4198296;28;19920;-72
2024/03/09 06:04:48;;;;;;;;;;;;;;;6.16;66.15;94778.34;4215810;28;19966;-71
2024/03/09 06:06:49;;;;;;;;;;;;;;;6.18;66.63;94779.06;4202120;28;20015;-69
2024/03/09 06:08:51;;;;;;;;;;;;;;;6.18;66.22;94779.06;4190083;28;19924;-69
2024/03/09 06:10:53;;;;;;;;;;;;;;;6.25;66.87;94777.56;4210234;28;20373;-72
2024/03/09 06:13:02;;;;;;;;;;;;;;;6.26;66.17;94776.63;4204146;28;20427;-70
2024/03/09 06:15:05;;;;;;;;;;;;;;;6.20;66.34;94782.34;4209490;28;19920;-70
2024/03/09 06:17:07;;;;;;;;;;;;;;;6.22;66.75;94779.63;4207399;28;19928;-70
2024/03/09 06:19:09;;;;;;;;;;;;;;;6.24;66.90;94788.09;4212168;28;19924;-72
2024/03/09 06:21:10;;;;;;;;;;;;;;;6.30;66.57;94787.56;4212291;28;19920;-70
2024/03/09 06:23:14;;;;;;;;;;;;;;;6.38;66.23;94786.94;4213341;28;20002;-72
2024/03/09 06:25:29;;;;;;;;;;;;;;;6.46;66.29;94787.09;4205813;28;19930;-71
2024/03/09 06:27:32;;;;;;;;;;;;;;;6.51;65.92;94785.75;4198348;28;19970;-71
2024/03/09 06:29:34;;;;;;;;;;;;;;;6.47;65.66;94789.56;4208805;28;19923;-70
2024/03/09 06:31:35;;;;;;;;;;;;;;;6.47;66.07;94799.16;4218948;28;19923;-71
2024/03/09 06:33:37;;;;;;;;;;;;;;;6.44;66.03;94800.25;4197830;28;20019;-72
2024/03/09 06:35:40;;;;;;;;;;;;;;;6.44;66.52;94792.44;4190848;28;20395;-71
2024/03/09 06:37:48;;;;;;;;;;;;;;;6.56;66.43;94795.78;4201281;28;20006;-70
2024/03/09 06:39:49;;;;;;;;;;;;;;;6.68;65.97;94801.69;4191283;28;20001;-70
2024/03/09 06:41:53;;;;;;;;;;;;;;;6.74;65.79;94799.38;4211992;28;19924;-69
2024/03/09 06:43:56;;;;;;;;;;;;;;;6.79;65.53;94798.16;4204188;28;20306;-70
2024/03/09 06:45:59;;;;;;;;;;;;;;;6.80;65.54;94808.44;4203110;28;19920;-72
2024/03/09 06:48:00;;;;;;;;;;;;;;;6.77;65.28;94806.09;4182894;28;19935;-71
2024/03/09 06:50:04;;;;;;;;;;;;;;;6.81;64.87;94804.88;4190272;28;20071;-72
2024/03/09 06:52:07;;;;;;;;;;;;;;;6.84;65.09;94811.59;4189473;28;20362;-71
2024/03/09 06:54:12;;;;;;;;;;;;;;;6.88;65.33;94808.59;4203983;28;19932;-72
2024/03/09 06:56:14;;;;;;;;;;;;;;;6.97;65.15;94807.81;4199374;28;19926;-72
2024/03/09 06:58:17;;;;;;;;;;;;;;;7.03;65.48;94822.03;4207482;28;19985;-70
2024/03/09 07:00:20;;;;;;;;;;;;;;;7.06;64.80;94818.38;4204638;28;19920;-70
2024/03/09 07:02:23;;;;;;;;;;;;;;;6.98;65.56;94809.44;4204896;28;20188;-70
2024/03/09 07:04:25;;;;;;;;;;;;;;;6.81;65.26;94819.69;4205103;28;20346;-71
2024/03/09 07:06:27;;;;;;;;;;;;;;;6.71;65.36;94817.03;4210899;28;19920;-72
2024/03/09 07:08:29;;;;;;;;;;;;;;;6.59;65.77;94821.53;4203916;28;19927;-70
2024/03/09 07:10:32;;;;;;;;;;;;;;;6.51;65.95;94822.19;4207389;28;20003;-70
2024/03/09 07:12:39;;;;;;;;;;;;;;;6.44;66.66;94826.25;4205716;28;19920;-70
2024/03/09 07:14:42;;;;;;;;;;;;;;;6.54;67.09;94823.72;4210754;28;20025;-69
2024/03/09 07:16:46;;;;;;;;;;;;;;;6.48;66.63;94819.84;4207154;28;20026;-69
2024/03/09 07:18:49;;;;;;;;;;;;;;;6.53;66.76;94817.66;4211128;28;19920;-73
2024/03/09 07:20:52;;;;;;;;;;;;;;;6.59;66.49;94815.50;4209844;28;19920;-72
2024/03/09 07:22:54;;;;;;;;;;;;;;;6.65;66.13;94815.81;4199068;28;19924;-73
2024/03/09 07:24:55;;;;;;;;;;;;;;;6.67;65.93;94811.28;4203436;28;19924;-71
2024/03/09 07:26:57;;;;;;;;;;;;;;;6.69;65.83;94814.59;4193738;28;20298;-72
2024/03/09 07:29:03;;;;;;;;;;;;;;;6.75;66.26;94814.06;4199450;28;19923;-71
2024/03/09 07:31:05;;;;;;;;;;;;;;;6.80;65.90;94810.22;4219434;28;19946;-71
2024/03/09 07:33:10;;;;;;;;;;;;;;;6.84;65.55;94817.66;4210930;28;19938;-73
2024/03/09 07:35:14;;;;;;;;;;;;;;;6.88;65.54;94819.03;4208838;28;19924;-69
2024/03/09 07:37:16;;;;;;;;;;;;;;;6.91;65.30;94818.75;4206621;28;20446;-69
2024/03/09 07:39:20;;;;;;;;;;;;;;;6.94;65.69;94823.69;4202765;28;19924;-71
2024/03/09 07:41:22;;;;;;;;;;;;;;;6.92;65.31;94819.56;4208120;28;19935;-70
2024/03/09 07:43:24;;;;;;;;;;;;;;;6.95;65.15;94820.13;4207302;28;19920;-69
2024/03/09 07:45:26;;;;;;;;;;;;;;;6.95;65.19;94824.53;4197978;28;19920;-70
2024/03/09 07:47:28;;;;;;;;;;;;;;;6.90;65.33;94817.09;4209490;28;20412;-70
2024/03/09 07:49:30;;;;;;;;;;;;;;;6.87;65.29;94814.75;4200397;28;19968;-74
2024/03/09 07:51:32;;;;;;;;;;;;;;;6.95;65.45;94811.50;4199381;28;20416;-70
2024/03/09 07:53:33;;;;;;;;;;;;;;;7.00;65.29;94816.31;4216594;28;20525;-72
2024/03/09 07:55:35;;;;;;;;;;;;;;;7.05;65.38;94824.53;4210256;28;19920;-72
2024/03/09 07:57:39;;;;;;;;;;;;;;;7.12;65.11;94820.41;4192564;28;19921;-72
2024/03/09 07:59:41;;;;;;;;;;;;;;;7.07;64.47;94822.63;4207257;28;19920;-70
2024/03/09 08:01:43;;;;;;;;;;;;;;;6.93;64.78;94821.22;4203084;28;19927;-71
2024/03/09 08:03:48;;;;;;;;;;;;;;;6.95;65.22;94827.94;4192559;28;19927;-71
2024/03/09 08:05:51;;;;;;;;;;;;;;;6.97;65.27;94828.63;4210117;28;19962;-71
2024/03/09 08:07:53;;;;;;;;;;;;;;;7.05;65.56;94829.75;4209654;28;19940;-72
2024/03/09 08:09:54;;;;;;;;;;;;;;;7.16;65.32;94830.47;4210079;28;19931;-70
2024/03/09 08:11:57;;;;;;;;;;;;;;;7.20;64.69;94831.00;4206445;28;20019;-72
2024/03/09 08:13:58;;;;;;;;;;;;;;;7.23;64.69;94832.50;4202299;28;19931;-71
2024/03/09 08:16:00;;;;;;;;;;;;;;;7.34;64.73;94838.44;4214617;28;20068;-71
2024/03/09 08:18:02;;;;;;;;;;;;;;;7.41;64.67;94843.91;4206227;28;20420;-70
2024/03/09 08:20:06;;;;;;;;;;;;;;;7.48;64.02;94837.19;4202646;28;19920;-70
2024/03/09 08:22:08;;;;;;;;;;;;;;;7.56;63.87;94836.50;4209468;28;19920;-71
2024/03/09 08:24:10;;;;;;;;;;;;;;;7.62;63.83;94837.75;4219873;28;19931;-69
2024/03/09 08:26:12;;;;;;;;;;;;;;;7.66;63.06;94834.75;4189440;28;20386;-69
2024/03/09 08:28:14;;;;;;;;;;;;;;;7.73;62.76;94838.44;4210710;28;20472;-71
2024/03/09 08:30:16;;;;;;;;;;;;;;;7.77;62.29;94837.19;4201622;28;19927;-71
2024/03/09 08:32:19;;;;;;;;;;;;;;;7.81;62.82;94835.16;4218511;28;19920;-73
2024/03/09 08:34:21;;;;;;;;;;;;;;;7.76;61.85;94838.13;4192761;28;19959;-71
2024/03/09 08:36:23;;;;;;;;;;;;;;;7.85;62.37;94835.66;4210892;28;20332;-73
2024/03/09 08:38:24;;;;;;;;;;;;;;;7.94;61.92;94827.84;4208161;28;19927;-70
2024/03/09 08:40:26;;;;;;;;;;;;;;;7.94;61.69;94832.25;4218790;28;19920;-70
2024/03/09 08:42:31;;;;;;;;;;;;;;;8.04;61.88;94832.22;4212815;28;19928;-70
2024/03/09 08:44:35;;;;;;;;;;;;;;;8.07;61.49;94829.34;4197253;28;20018;-69
2024/03/09 08:46:36;;;;;;;;;;;;;;;8.13;62.23;94828.75;4198408;28;19920;-71
2024/03/09 08:48:38;;;;;;;;;;;;;;;8.10;62.08;94826.44;4198356;28;20016;-72
2024/03/09 08:50:40;;;;;;;;;;;;;;;8.05;62.57;94826.88;4206228;28;19947;-70
2024/03/09 08:52:42;;;;;;;;;;;;;;;8.15;63.93;94830.28;4215165;28;19976;-71
2024/03/09 08:54:44;;;;;;;;;;;;;;;8.29;63.06;94817.75;4203498;28;19924;-72
2024/03/09 08:56:47;;;;;;;;;;;;;;;8.21;61.21;94829.69;4200656;28;19920;-72
2024/03/09 08:58:49;;;;;;;;;;;;;;;8.28;61.61;94829.13;4204996;28;19920;-72
2024/03/09 09:00:50;;;;;;;;;;;;;;;8.41;61.99;94824.47;4213172;28;20342;-69
2024/03/09 09:02:56;;;;;;;;;;;;;;;8.52;60.52;94821.69;4204387;28;19920;-71
2024/03/09 09:04:59;;;;;;;;;;;;;;;8.51;61.19;94824.44;4187149;28;19923;-71
2024/03/09 09:07:01;;;;;;;;;;;;;;;8.49;60.99;94823.75;4210195;28;20270;-69
2024/03/09 09:09:09;;;;;;;;;;;;;;;8.47;61.17;94816.06;4205524;28;19920;-70
2024/03/09 09:11:13;;;;;;;;;;;;;;;8.45;60.17;94823.19;4206168;28;19920;-73
2024/03/09 09:13:16;;;;;;;;;;;;;;;8.57;60.66;94813.41;4201839;28;19923;-72
2024/03/09 09:15:23;;;;;;;;;;;;;;;8.66;59.82;94820.38;4189738;28;20248;-73
2024/03/09 09:17:26;;;;;;;;;;;;;;;8.69;59.85;94814.03;4219122;28;20317;-72
2024/03/09 09:19:28;;;;;;;;;;;;;;;8.53;60.08;94820.69;4218687;28;19919;-70
2024/03/09 09:21:31;;;;;;;;;;;;;;;8.25;60.83;94816.38;4210411;28;19924;-70
2024/03/09 09:23:33;;;;;;;;;;;;;;;8.37;60.59;94818.69;4181138;28;20044;-70
2024/03/09 09:25:35;;;;;;;;;;;;;;;8.57;61.35;94810.81;4196163;28;19927;-68
2024/03/09 09:27:38;;;;;;;;;;;;;;;8.75;60.03;94811.66;4200963;28;19935;-71
2024/03/09 09:29:39;;;;;;;;;;;;;;;8.99;59.99;94812.91;4194339;28;19974;-70
2024/03/09 09:31:42;;;;;;;;;;;;;;;8.90;59.73;94806.78;4206779;28;19926;-69
2024/03/09 09:33:44;;;;;;;;;;;;;;;8.99;59.89;94800.69;4205726;28;19970;-70
2024/03/09 09:35:46;;;;;;;;;;;;;;;9.10;59.46;94801.44;4199677;28;20358;-71
2024/03/09 09:37:48;;;;;;;;;;;;;;;9.20;59.09;94796.97;4197722;28;19920;-69
2024/03/09 09:39:51;;;;;;;;;;;;;;;9.35;58.24;94803.31;4207038;28;19920;-72
2024/03/09 09:41:53;;;;;;;;;;;;;;;9.40;57.96;94801.09;4203458;28;19975;-69
2024/03/09 09:43:58;;;;;;;;;;;;;;;9.49;57.86;94811.66;4202771;28;19951;-71
2024/03/09 09:46:00;;;;;;;;;;;;;;;9.31;58.38;94811.63;4184424;28;19920;-71
2024/03/09 09:48:05;;;;;;;;;;;;;;;9.30;58.69;94810.00;4187585;28;19972;-70
2024/03/09 09:50:07;;;;;;;;;;;;;;;8.90;58.66;94805.97;4203049;28;20007;-71
2024/03/09 09:52:12;;;;;;;;;;;;;;;8.82;59.07;94801.47;4183753;28;19932;-71
2024/03/09 09:54:14;;;;;;;;;;;;;;;8.98;59.83;94806.06;4191318;28;19932;-73
2024/03/09 09:56:16;;;;;;;;;;;;;;;8.95;58.75;94812.41;4184359;28;19924;-73
2024/03/09 09:58:18;;;;;;;;;;;;;;;9.08;59.18;94806.84;4209522;28;19919;-72
2024/03/09 10:00:23;;;;;;;;;;;;;;;9.16;58.67;94803.47;4206952;28;19946;-70
2024/03/09 10:02:25;;;;;;;;;;;;;;;9.26;58.68;94801.63;4209804;28;20400;-73
2024/03/09 10:04:29;;;;;;;;;;;;;;;9.37;58.28;94803.19;4206397;28;19920;-71
2024/03/09 10:06:30;;;;;;;;;;;;;;;9.39;58.39;94809.91;4205497;28;19927;-71
2024/03/09 10:08:41;;;;;;;;;;;;;;;9.45;58.30;94808.50;4198478;28;20371;-71
2024/03/09 10:10:47;;;;;;;;;;;;;;;9.57;58.59;94802.06;4204309;28;20022;-71
2024/03/09 10:12:49;;;;;;;;;;;;;;;9.68;58.23;94798.41;4200753;28;19952;-71
2024/03/09 10:14:56;;;;;;;;;;;;;;;9.78;57.01;94798.31;4212935;28;20354;-72
2024/03/09 10:17:19;;;;;;;;;;;;;;;9.83;57.88;94802.13;4190525;28;19928;-71
2024/03/09 10:19:21;;;;;;;;;;;;;;;9.92;57.88;94799.56;4190770;28;19990;-71
2024/03/09 10:21:29;;;;;;;;;;;;;;;10.00;57.27;94797.00;4188705;28;19921;-73
2024/03/09 10:23:34;;;;;;;;;;;;;;;9.99;57.34;94788.31;4199939;28;19920;-69
2024/03/09 10:25:36;;;;;;;;;;;;;;;9.96;57.01;94793.03;4207753;28;20239;-72
2024/03/09 10:27:38;;;;;;;;;;;;;;;9.83;57.19;94786.44;4203455;28;19924;-71
2024/03/09 10:29:40;;;;;;;;;;;;;;;9.92;57.10;94787.31;4202015;28;20375;-71
2024/03/09 10:31:43;;;;;;;;;;;;;;;10.15;57.00;94778.94;4188561;28;20366;-72
2024/03/09 10:33:51;;;;;;;;;;;;;;;10.35;56.72;94776.97;4202296;28;19927;-71
2024/03/09 10:35:53;;;;;;;;;;;;;;;10.51;56.00;94777.03;4207111;28;19970;-70
2024/03/09 10:37:57;;;;;;;;;;;;;;;10.70;55.73;94775.97;4198255;28;20011;-70
2024/03/09 10:40:04;;;;;;;;;;;;;;;10.78;55.17;94777.81;4197549;28;19920;-71
2024/03/09 10:42:05;;;;;;;;;;;;;;;10.81;55.11;94777.50;4202337;28;20427;-72
2024/03/09 10:44:07;;;;;;;;;;;;;;;10.90;55.18;94779.16;4190502;28;19931;-73
2024/03/09 10:46:09;;;;;;;;;;;;;;;10.94;54.85;94775.25;4179752;28;19921;-70
2024/03/09 10:48:11;;;;;;;;;;;;;;;10.99;54.91;94770.34;4201447;28;20026;-74
2024/03/09 10:50:16;;;;;;;;;;;;;;;11.01;54.95;94773.63;4185061;28;20324;-70